Zacatecas Airport, Mexico

6:17 AM CST on February 06, 2016 (GMT -0600)
Gen Leobardo C Ruiz International | | Change Station
CLOSE
Current Station
Airport
Location: Zacatecas Airport,
Elevation: 7139 ft
Nearby Weather Stations

Elev 7139 ft 22.90 °N, 102.69 °W | Updated 34 minutes ago

Clear
Clear
32 °F
Feels Like 24 °F
N
9
Wind Variable Wind from NE

Today
High -- | Low -- °F
--% Chance of Precip.
Yesterday
High -- | Low -- °F
Precip. -- in
Pressure 30.41 in
Visibility 8.0 miles
Clouds Clear
Windchill 24 °F
Dew Point 10 °F
Humidity 41%
Rainfall 0.00 in
Snow Depth Not available.
7:28 AM 6:41 PM
Waning Crescent, 6% visible
METAR MMZC 061143Z 05008KT 8SM SKC 00/M12 A3041
Pressure 30.41 in
Visibility 8.0 miles
Clouds Clear
Windchill 24 °F
Dew Point 10 °F
Humidity 41%
Rainfall 0.00 in
Snow Depth Not available.
7:28 AM 6:41 PM
Waning Crescent, 6% visible
METAR MMZC 061143Z 05008KT 8SM SKC 00/M12 A3041

10-Day Weather Forecast

No radar image for this location.
×

Almanac

Astronomy

Feb. 06, 2016 Rise Set
Actual Time
Civil Twilight
Nautical Twilight
Astronomical Twilight
Moon
Length of Visible Light
Length of Day
Tomorrow will be .
, % of the Moon is Illuminated

Today's Extremes

Country Highs Country Lows

Community

WunderPhotos

Upload Photos

1,890,944 photos uploaded!

WunderBlog® & News

Nearby

Air Quality

  Air Quality AQ Index Pollutant
Not available.

Snow Depth

Station Depth Elevation

Earthquake Activity

City Distance Mag. Time & Date
Minimum magnitude displayed is 2.5.

Coastal Water Temperatures

Place Temperature

Stations

Nearby Weather Stations

Station Location Temp. Windchill Dew Point Humidity Wind Precip. Elev Updated Type